Time;durP1;ratioP1;P1;durP2;ratioP2;P2;SDS_P1;SDS_P2;PMS_P1;PMS_P2;Temp;Humidity;BMP_temperature;BMP_pressure;BME280_temperature;BME280_humidity;BME280_pressure;Samples;Min_cycle;Max_cycle;Signal;HPM_P1;HPM_P2
2021/11/20 00:01:23;;;;;;;15.97;13.53;;;9.90;47.60;;;;;;10418361;28;20225;-71
2021/11/20 00:06:31;;;;;;;17.37;13.20;;;9.90;48.00;;;;;;10416957;28;20229;-71
2021/11/20 00:11:37;;;;;;;16.60;13.77;;;9.90;47.70;;;;;;10420384;28;20229;-71
2021/11/20 00:16:42;;;;;;;14.80;13.13;;;9.90;47.50;;;;;;10428801;28;20516;-71
2021/11/20 00:21:51;;;;;;;13.83;12.40;;;9.90;47.60;;;;;;10424657;28;20646;-70
2021/11/20 00:26:55;;;;;;;14.73;12.20;;;9.80;48.00;;;;;;10430132;28;20712;-71
2021/11/20 00:32:01;;;;;;;14.30;12.40;;;9.80;47.70;;;;;;10427205;28;20232;-71
2021/11/20 00:37:07;;;;;;;14.33;12.17;;;9.70;47.70;;;;;;10428471;28;20247;-70
2021/11/20 00:42:13;;;;;;;14.63;11.90;;;9.90;47.90;;;;;;10429417;28;20721;-71
2021/11/20 00:47:20;;;;;;;13.67;12.17;;;9.90;48.00;;;;;;10429088;28;20240;-71
2021/11/20 00:52:26;;;;;;;13.97;11.23;;;10.00;47.00;;;;;;10432960;28;20229;-73
2021/11/20 00:57:29;;;;;;;15.07;12.53;;;10.00;47.10;;;;;;10429672;28;20229;-73
2021/11/20 01:02:32;;;;;;;13.97;11.57;;;10.00;46.90;;;;;;10423541;28;20229;-73
2021/11/20 01:07:37;;;;;;;14.57;13.03;;;10.10;46.90;;;;;;10425298;28;20224;-73
2021/11/20 01:12:41;;;;;;;15.00;13.27;;;10.10;47.00;;;;;;10427122;28;20224;-73
2021/11/20 01:17:44;;;;;;;13.43;11.83;;;10.20;46.90;;;;;;10427101;28;20260;-73
2021/11/20 01:22:48;;;;;;;12.83;10.93;;;10.20;46.70;;;;;;10431674;28;20228;-73
2021/11/20 01:27:52;;;;;;;13.73;12.10;;;10.10;46.80;;;;;;10423234;28;20227;-71
2021/11/20 01:32:55;;;;;;;13.47;11.43;;;10.10;46.70;;;;;;10466358;22;20868;-79
2021/11/20 01:38:01;;;;;;;12.87;10.97;;;10.10;46.70;;;;;;10495602;28;20596;-78
2021/11/20 01:43:05;;;;;;;11.43;10.33;;;10.10;46.80;;;;;;10522507;28;20231;-78
2021/11/20 01:48:27;;;;;;;11.60;10.47;;;10.10;46.60;;;;;;10536881;28;20227;-78
2021/11/20 01:53:37;;;;;;;13.07;10.67;;;10.10;47.00;;;;;;10537093;28;20227;-78
2021/11/20 01:58:51;;;;;;;12.03;10.23;;;10.10;46.70;;;;;;10536627;28;20232;-78
2021/11/20 02:04:01;;;;;;;11.53;10.00;;;10.10;46.90;;;;;;10544025;28;20223;-79
2021/11/20 02:09:16;;;;;;;11.57;9.97;;;10.10;46.80;;;;;;10545111;28;20327;-79
2021/11/20 02:14:21;;;;;;;12.17;10.87;;;10.10;47.10;;;;;;10544735;28;20416;-78
2021/11/20 02:19:27;;;;;;;12.67;11.03;;;10.10;46.80;;;;;;10543388;28;20227;-79
2021/11/20 02:24:30;;;;;;;12.63;11.33;;;10.00;46.80;;;;;;10543119;28;20247;-79
2021/11/20 02:29:45;;;;;;;13.57;11.60;;;10.00;46.60;;;;;;10525082;28;20224;-78
2021/11/20 02:34:53;;;;;;;12.93;11.53;;;10.00;47.00;;;;;;10480924;28;20663;-78
2021/11/20 02:39:56;;;;;;;14.40;12.77;;;10.00;47.00;;;;;;10497156;28;20316;-78
2021/11/20 02:44:59;;;;;;;14.77;13.10;;;10.10;46.80;;;;;;10501385;28;20230;-79
2021/11/20 02:50:05;;;;;;;15.40;13.03;;;10.10;46.80;;;;;;10501919;28;20323;-79
2021/11/20 02:55:09;;;;;;;15.83;13.73;;;10.10;46.90;;;;;;10466108;28;20228;-79
2021/11/20 03:00:15;;;;;;;15.80;13.77;;;10.10;46.70;;;;;;10461449;28;20260;-79
2021/11/20 03:05:21;;;;;;;16.17;13.27;;;10.10;46.70;;;;;;10482354;28;20759;-79
2021/11/20 03:10:24;;;;;;;17.00;14.97;;;10.10;46.80;;;;;;10502886;28;20595;-79
2021/11/20 03:15:28;;;;;;;18.47;16.20;;;10.10;46.70;;;;;;10484621;28;22472;-79
2021/11/20 03:20:32;;;;;;;19.60;16.60;;;10.10;46.70;;;;;;10502057;28;20234;-79
2021/11/20 03:25:36;;;;;;;16.80;14.70;;;10.10;46.70;;;;;;10501130;28;20707;-79
2021/11/20 03:30:39;;;;;;;18.53;15.70;;;10.10;46.70;;;;;;10501861;28;20653;-79
2021/11/20 03:35:45;;;;;;;17.87;14.97;;;10.10;46.70;;;;;;10476733;28;20247;-79
2021/11/20 03:40:48;;;;;;;19.63;16.60;;;10.10;46.80;;;;;;10460663;28;20229;-79
2021/11/20 03:45:52;;;;;;;17.40;15.03;;;10.10;46.70;;;;;;10477377;28;20311;-79
2021/11/20 03:50:57;;;;;;;17.50;14.97;;;10.10;46.60;;;;;;10477028;28;20260;-79
2021/11/20 03:56:01;;;;;;;19.67;16.60;;;10.10;46.60;;;;;;10500436;28;20238;-79
2021/11/20 04:01:07;;;;;;;19.93;17.23;;;10.10;46.60;;;;;;10500474;28;20248;-79
2021/11/20 04:06:15;;;;;;;18.27;14.67;;;10.00;46.50;;;;;;10501015;28;20602;-79
2021/11/20 04:11:21;;;;;;;17.67;15.17;;;10.00;46.60;;;;;;10500740;28;20312;-79
2021/11/20 04:16:26;;;;;;;19.20;16.03;;;10.00;46.70;;;;;;10468776;28;20228;-79
2021/11/20 04:21:32;;;;;;;17.83;15.50;;;10.00;46.80;;;;;;10458555;28;20235;-79
2021/11/20 04:26:35;;;;;;;16.97;15.13;;;10.00;46.80;;;;;;10458350;28;20235;-79
2021/11/20 04:31:38;;;;;;;19.30;15.63;;;10.00;46.70;;;;;;10489212;28;20754;-79
2021/11/20 04:36:44;;;;;;;16.83;14.80;;;10.00;46.80;;;;;;10467149;28;20236;-77
2021/11/20 04:41:47;;;;;;;17.73;14.90;;;10.00;46.80;;;;;;10463756;23;20228;-69
2021/11/20 04:46:50;;;;;;;16.87;14.40;;;10.00;46.70;;;;;;10451554;28;20237;-69
2021/11/20 04:51:55;;;;;;;16.57;14.17;;;10.00;46.70;;;;;;10424873;28;20222;-69
2021/11/20 04:56:58;;;;;;;16.73;13.53;;;10.00;46.70;;;;;;10441194;28;20324;-69
2021/11/20 05:02:02;;;;;;;14.73;12.23;;;10.10;46.80;;;;;;10459688;28;20589;-69
2021/11/20 05:07:08;;;;;;;14.10;12.43;;;10.10;46.90;;;;;;10422639;28;20842;-69
2021/11/20 05:12:11;;;;;;;15.00;12.80;;;10.10;46.90;;;;;;10423183;28;20225;-69
2021/11/20 05:17:14;;;;;;;14.90;13.23;;;10.10;46.80;;;;;;10417045;28;20227;-70
2021/11/20 05:22:19;;;;;;;15.83;13.67;;;10.10;46.70;;;;;;10426416;28;20224;-69
2021/11/20 05:27:22;;;;;;;14.50;12.97;;;10.10;46.80;;;;;;10434650;28;20232;-69
2021/11/20 05:32:25;;;;;;;15.10;13.17;;;10.10;46.70;;;;;;10454501;28;20252;-69
2021/11/20 05:37:31;;;;;;;14.83;13.10;;;10.10;46.70;;;;;;10467688;28;20278;-69
2021/11/20 05:42:34;;;;;;;14.90;13.30;;;10.10;46.90;;;;;;10462209;28;20233;-69
2021/11/20 05:47:37;;;;;;;14.23;12.80;;;10.10;46.70;;;;;;10469116;28;20231;-69
2021/11/20 05:52:42;;;;;;;13.87;12.43;;;10.00;46.70;;;;;;10448524;28;20225;-69
2021/11/20 05:57:45;;;;;;;14.63;13.10;;;10.00;47.00;;;;;;10441321;28;20688;-69
2021/11/20 06:02:48;;;;;;;16.90;13.60;;;10.00;47.00;;;;;;10441983;28;20230;-69
2021/11/20 06:07:53;;;;;;;14.00;11.90;;;10.10;47.10;;;;;;10447499;28;20224;-70
2021/11/20 06:12:56;;;;;;;15.00;13.40;;;10.10;47.30;;;;;;10459352;28;20237;-69
2021/11/20 06:17:59;;;;;;;17.43;13.27;;;10.10;47.10;;;;;;10452558;28;20240;-70
2021/11/20 06:23:04;;;;;;;18.47;16.07;;;10.10;47.00;;;;;;10451585;28;20241;-70
2021/11/20 06:28:07;;;;;;;19.30;15.73;;;10.10;47.20;;;;;;10442580;28;20225;-70
2021/11/20 06:33:10;;;;;;;22.70;18.30;;;10.10;47.10;;;;;;10441920;28;20727;-68
2021/11/20 06:38:15;;;;;;;21.60;18.90;;;10.00;46.90;;;;;;10425428;28;20726;-69
2021/11/20 06:43:23;;;;;;;21.73;17.47;;;10.00;47.10;;;;;;10424743;28;20709;-69
2021/11/20 06:48:27;;;;;;;22.27;17.73;;;10.00;47.50;;;;;;10417016;28;20222;-69
2021/11/20 06:53:32;;;;;;;23.40;18.93;;;10.00;47.30;;;;;;10419429;28;20236;-70
2021/11/20 06:59:07;;;;;;;23.63;19.77;;;10.00;47.40;;;;;;10415598;28;20245;-70
2021/11/20 07:04:13;;;;;;;23.10;18.23;;;10.00;47.20;;;;;;10431760;28;20225;-69
2021/11/20 07:09:18;;;;;;;24.40;18.80;;;10.00;47.40;;;;;;10461660;28;20231;-69
2021/11/20 07:14:21;;;;;;;24.23;18.47;;;10.00;47.30;;;;;;10457489;28;20240;-69
2021/11/20 07:19:25;;;;;;;21.80;18.37;;;10.00;47.00;;;;;;10418031;28;20234;-70
2021/11/20 07:24:29;;;;;;;21.53;17.47;;;10.00;47.00;;;;;;10432111;28;20231;-69
2021/11/20 07:29:32;;;;;;;21.53;17.47;;;10.00;47.00;;;;;;10461647;28;20228;-69
2021/11/20 07:34:36;;;;;;;21.73;17.93;;;10.00;47.10;;;;;;10460295;28;20588;-69
2021/11/20 07:39:40;;;;;;;23.10;18.13;;;9.90;48.80;;;;;;10464435;28;20660;-69
2021/11/20 07:44:44;;;;;;;23.90;18.80;;;9.90;48.30;;;;;;10461558;28;20598;-69
2021/11/20 07:49:49;;;;;;;22.60;17.70;;;9.90;48.10;;;;;;10466110;28;20216;-69
2021/11/20 07:54:54;;;;;;;20.60;16.77;;;9.80;48.10;;;;;;10459756;28;20255;-69
2021/11/20 07:59:57;;;;;;;19.63;16.03;;;9.80;48.30;;;;;;10458691;28;20227;-69
2021/11/20 08:05:00;;;;;;;20.10;16.63;;;9.70;48.20;;;;;;10457369;28;20228;-70
2021/11/20 08:10:06;;;;;;;19.60;16.10;;;9.60;48.40;;;;;;10461313;28;20224;-71
2021/11/20 08:15:10;;;;;;;18.90;15.53;;;9.60;48.60;;;;;;10453157;28;20316;-71
2021/11/20 08:20:16;;;;;;;19.43;15.47;;;9.60;48.50;;;;;;10455838;28;20606;-70
2021/11/20 08:25:25;;;;;;;18.73;15.33;;;9.60;48.70;;;;;;10463578;28;20326;-70
2021/11/20 08:30:31;;;;;;;17.93;14.83;;;9.70;48.90;;;;;;10457267;28;20216;-70
2021/11/20 08:35:36;;;;;;;16.87;14.27;;;9.70;48.70;;;;;;10456625;28;20233;-70
2021/11/20 08:40:42;;;;;;;19.67;15.67;;;9.70;48.70;;;;;;10463569;28;20234;-70
2021/11/20 08:45:50;;;;;;;19.70;16.03;;;9.80;48.90;;;;;;10447334;28;20228;-70
2021/11/20 08:50:55;;;;;;;19.53;15.93;;;9.80;48.90;;;;;;10434882;28;20225;-70
2021/11/20 08:56:01;;;;;;;18.30;14.97;;;9.80;48.70;;;;;;10428938;28;20604;-70
2021/11/20 09:01:09;;;;;;;16.87;14.63;;;9.80;48.80;;;;;;10423674;28;20224;-70
2021/11/20 09:06:18;;;;;;;19.03;15.23;;;9.80;48.80;;;;;;10418148;28;20308;-70
2021/11/20 09:11:26;;;;;;;19.03;14.87;;;9.90;48.90;;;;;;10419241;28;20771;-70
2021/11/20 09:16:30;;;;;;;18.33;15.37;;;9.90;49.00;;;;;;10418105;28;20980;-70
2021/11/20 09:21:35;;;;;;;17.00;14.27;;;10.00;48.00;;;;;;10417386;28;20306;-70
2021/11/20 09:26:42;;;;;;;17.70;14.70;;;10.00;47.90;;;;;;10421118;28;20225;-70
2021/11/20 09:31:46;;;;;;;17.00;13.93;;;10.10;47.90;;;;;;10430846;28;20733;-70
2021/11/20 09:36:54;;;;;;;16.43;14.67;;;10.20;47.90;;;;;;10418424;28;20249;-70
2021/11/20 09:42:17;;;;;;;15.97;13.13;;;10.30;48.00;;;;;;10415371;28;20241;-70
2021/11/20 09:47:26;;;;;;;17.17;14.50;;;10.30;48.10;;;;;;10440495;28;20229;-70
2021/11/20 09:52:29;;;;;;;14.87;13.17;;;10.30;48.00;;;;;;10447222;28;20254;-71
2021/11/20 09:57:37;;;;;;;14.73;13.03;;;10.40;47.80;;;;;;10455283;28;20232;-70
2021/11/20 10:02:49;;;;;;;16.37;14.60;;;10.50;47.90;;;;;;10449848;28;21262;-76
2021/11/20 10:08:13;;;;;;;15.33;13.03;;;10.50;48.00;;;;;;10455320;28;20232;-70
2021/11/20 10:13:21;;;;;;;19.60;14.30;;;10.60;48.20;;;;;;10457927;28;20217;-71
2021/11/20 10:18:28;;;;;;;13.40;11.83;;;10.70;48.00;;;;;;10458797;28;20243;-70
2021/11/20 10:23:44;;;;;;;14.53;12.93;;;10.70;47.80;;;;;;10464923;28;20590;-70
2021/11/20 10:29:00;;;;;;;15.17;12.83;;;10.80;47.90;;;;;;10467286;28;20264;-70
2021/11/20 10:34:15;;;;;;;15.10;13.33;;;10.90;47.90;;;;;;10466025;28;20251;-71
2021/11/20 10:39:23;;;;;;;15.90;13.93;;;10.90;47.60;;;;;;10467261;28;20220;-76
2021/11/20 10:44:42;;;;;;;18.57;16.67;;;10.90;47.50;;;;;;10462270;28;20224;-75
2021/11/20 10:49:57;;;;;;;47.50;42.87;;;10.90;47.80;;;;;;10462448;28;20235;-70
2021/11/20 10:55:16;;;;;;;17.27;15.00;;;10.90;48.00;;;;;;10466800;28;20722;-70
2021/11/20 11:00:28;;;;;;;14.83;13.20;;;11.00;48.00;;;;;;10472030;28;20223;-71
2021/11/20 11:06:16;;;;;;;12.70;11.43;;;11.10;48.00;;;;;;10465989;28;21018;-70
2021/11/20 11:11:24;;;;;;;13.17;11.77;;;11.20;47.90;;;;;;10468001;28;20300;-70
2021/11/20 11:16:35;;;;;;;12.23;10.90;;;11.30;47.50;;;;;;10463267;28;20586;-70
2021/11/20 11:21:55;;;;;;;12.03;10.80;;;11.40;47.40;;;;;;10463371;28;20228;-70
2021/11/20 11:27:07;;;;;;;10.73;9.67;;;11.40;47.40;;;;;;10467080;28;20274;-70
2021/11/20 11:32:13;;;;;;;11.43;10.27;;;11.50;47.50;;;;;;10466580;28;20274;-70
2021/11/20 11:37:26;;;;;;;10.83;9.73;;;11.60;47.30;;;;;;10458831;28;20311;-69
2021/11/20 11:42:38;;;;;;;12.17;10.87;;;11.60;47.20;;;;;;10468818;28;20229;-70
2021/11/20 11:47:53;;;;;;;11.27;10.17;;;11.70;46.90;;;;;;10460356;28;20224;-70
2021/11/20 11:53:31;;;;;;;12.33;11.13;;;11.70;47.00;;;;;;10464283;28;20224;-73
2021/11/20 11:59:03;;;;;;;11.07;9.93;;;11.70;46.80;;;;;;10464127;28;20219;-70
2021/11/20 12:04:10;;;;;;;10.57;9.27;;;11.80;47.00;;;;;;10463805;28;20239;-70
2021/11/20 12:09:29;;;;;;;5.53;5.13;;;11.90;46.50;;;;;;10464037;28;20338;-70
2021/11/20 12:14:37;;;;;;;8.80;8.00;;;11.90;44.30;;;;;;10463550;28;20225;-70
2021/11/20 12:19:49;;;;;;;10.43;9.43;;;12.00;45.60;;;;;;10464548;28;20255;-70
2021/11/20 12:24:56;;;;;;;10.23;9.07;;;12.00;45.60;;;;;;10460787;28;20241;-70
2021/11/20 12:30:14;;;;;;;9.10;8.20;;;12.00;45.50;;;;;;10453288;28;20224;-70
2021/11/20 12:35:39;;;;;;;8.10;7.30;;;12.00;44.80;;;;;;10463653;28;20601;-70
2021/11/20 12:40:53;;;;;;;19.80;17.70;;;12.00;44.30;;;;;;10461234;28;20228;-70
2021/11/20 12:46:15;;;;;;;8.43;7.63;;;12.00;44.30;;;;;;10457806;28;20233;-70
2021/11/20 12:51:32;;;;;;;10.97;9.97;;;12.00;43.70;;;;;;10459496;28;20220;-70
2021/11/20 12:56:39;;;;;;;7.17;6.47;;;12.10;44.00;;;;;;10459535;28;20318;-70
2021/11/20 13:01:45;;;;;;;6.87;6.27;;;12.10;44.10;;;;;;10461768;28;20225;-70
2021/11/20 13:06:53;;;;;;;7.87;7.17;;;12.10;44.30;;;;;;10460646;28;20242;-70
2021/11/20 13:12:03;;;;;;;7.10;6.50;;;12.10;43.80;;;;;;10458204;28;20240;-70
2021/11/20 13:17:17;;;;;;;8.80;8.07;;;12.20;44.20;;;;;;10459714;28;21768;-70
2021/11/20 13:22:44;;;;;;;16.47;15.17;;;12.20;43.60;;;;;;10460750;28;20318;-70
2021/11/20 13:28:00;;;;;;;8.70;8.00;;;12.20;43.70;;;;;;10457039;28;20220;-70
2021/11/20 13:33:05;;;;;;;8.13;7.43;;;12.30;43.20;;;;;;10456008;28;20240;-71
2021/11/20 13:38:10;;;;;;;7.57;6.97;;;12.30;43.90;;;;;;10458932;28;21072;-71
2021/11/20 13:43:18;;;;;;;7.80;7.10;;;12.30;44.00;;;;;;10462456;28;20238;-71
2021/11/20 13:48:24;;;;;;;9.10;8.30;;;12.40;43.50;;;;;;10463038;28;20367;-71
2021/11/20 13:53:32;;;;;;;9.30;8.37;;;12.40;43.70;;;;;;10454301;28;20811;-71
2021/11/20 13:58:39;;;;;;;8.10;7.30;;;12.40;43.40;;;;;;10464457;28;20250;-71
2021/11/20 14:03:52;;;;;;;7.53;6.83;;;12.40;43.20;;;;;;10468016;28;20231;-71
2021/11/20 14:08:56;;;;;;;7.93;7.23;;;12.40;42.80;;;;;;10464789;28;20594;-71
2021/11/20 14:14:00;;;;;;;7.50;6.80;;;12.40;43.50;;;;;;10467611;28;20224;-71
2021/11/20 14:19:05;;;;;;;7.67;6.97;;;12.40;43.20;;;;;;10461888;28;20791;-71
2021/11/20 14:24:10;;;;;;;8.33;7.47;;;12.40;43.40;;;;;;10459947;28;20232;-71
2021/11/20 14:29:16;;;;;;;8.70;8.00;;;12.40;43.00;;;;;;10463198;28;20919;-71
2021/11/20 14:34:29;;;;;;;7.40;6.80;;;12.40;42.30;;;;;;10464467;28;20232;-72
2021/11/20 14:39:34;;;;;;;8.53;7.73;;;12.30;42.00;;;;;;10468713;28;20228;-73
2021/11/20 14:44:39;;;;;;;8.80;8.00;;;12.30;43.40;;;;;;10468774;28;20228;-73
2021/11/20 14:49:44;;;;;;;8.57;7.87;;;12.30;43.00;;;;;;10478889;28;20223;-72
2021/11/20 14:54:51;;;;;;;8.83;8.03;;;12.30;43.00;;;;;;10478833;28;20231;-72
2021/11/20 14:59:56;;;;;;;8.43;7.73;;;12.30;42.60;;;;;;10467384;28;20585;-72
2021/11/20 15:04:59;;;;;;;8.77;8.07;;;12.30;42.90;;;;;;10461065;28;20236;-72
2021/11/20 15:10:04;;;;;;;9.77;8.87;;;12.30;43.40;;;;;;10461888;28;20224;-72
2021/11/20 15:15:10;;;;;;;11.37;10.27;;;12.30;43.40;;;;;;10469936;28;20326;-72
2021/11/20 15:20:14;;;;;;;12.27;11.13;;;12.30;43.10;;;;;;10465220;28;20231;-72
2021/11/20 15:25:18;;;;;;;11.40;10.27;;;12.30;43.20;;;;;;10460381;28;20246;-72
2021/11/20 15:30:23;;;;;;;10.53;9.53;;;12.30;43.40;;;;;;10457653;28;20619;-73
2021/11/20 15:35:26;;;;;;;10.77;9.67;;;12.30;42.90;;;;;;10461352;28;20252;-72
2021/11/20 15:40:29;;;;;;;26.97;24.13;;;12.30;43.20;;;;;;10463034;28;20221;-72
2021/11/20 15:45:34;;;;;;;12.60;10.50;;;12.20;43.10;;;;;;10464174;28;20229;-73
2021/11/20 15:50:37;;;;;;;14.03;12.40;;;12.20;42.80;;;;;;10464323;28;20216;-72
2021/11/20 15:55:40;;;;;;;11.90;10.53;;;12.20;43.00;;;;;;10465119;28;20316;-72
2021/11/20 16:00:45;;;;;;;8.67;7.87;;;12.20;42.90;;;;;;10455154;28;20307;-72
2021/11/20 16:05:49;;;;;;;7.47;6.87;;;12.10;42.10;;;;;;10459402;28;20228;-72
2021/11/20 16:10:52;;;;;;;8.23;7.47;;;12.00;42.70;;;;;;10458507;28;20225;-73
2021/11/20 16:15:58;;;;;;;7.77;6.97;;;11.90;43.10;;;;;;10460545;28;20645;-72
2021/11/20 16:21:03;;;;;;;8.53;7.83;;;11.80;42.70;;;;;;10456157;28;20221;-72
2021/11/20 16:26:07;;;;;;;9.53;8.57;;;11.80;43.00;;;;;;10457176;28;20267;-71
2021/11/20 16:31:12;;;;;;;8.33;7.50;;;11.80;43.00;;;;;;10463096;28;20319;-72
2021/11/20 16:36:15;;;;;;;8.87;8.07;;;11.80;43.00;;;;;;10457022;28;20334;-72
2021/11/20 16:41:29;;;;;;;8.40;7.70;;;11.80;43.40;;;;;;10462012;28;20236;-72
2021/11/20 16:46:34;;;;;;;9.80;8.90;;;11.80;43.10;;;;;;10459372;28;20273;-72
2021/11/20 17:09:47;;;;;;;7.87;7.07;;;11.70;42.30;;;;;;10476654;28;20813;-89
2021/11/20 17:14:57;;;;;;;8.27;6.80;;;11.70;43.00;;;;;;10530787;28;20730;-90
2021/11/20 17:20:00;;;;;;;7.43;6.83;;;11.70;42.50;;;;;;10535530;28;20235;-90
2021/11/20 17:25:10;;;;;;;7.93;7.20;;;11.60;43.00;;;;;;10533938;28;20652;-90
2021/11/20 17:30:14;;;;;;;8.57;7.63;;;11.50;42.50;;;;;;10534559;28;20654;-90
2021/11/20 17:35:17;;;;;;;7.77;7.00;;;11.50;43.00;;;;;;10535183;28;20319;-90
2021/11/20 17:40:22;;;;;;;7.57;6.87;;;11.50;43.20;;;;;;10534870;28;20261;-91
2021/11/20 17:45:26;;;;;;;6.83;6.23;;;11.40;43.10;;;;;;10534809;28;20662;-90
2021/11/20 17:50:37;;;;;;;7.33;6.73;;;11.30;43.30;;;;;;10534952;28;20223;-90
2021/11/20 17:55:41;;;;;;;8.13;7.33;;;11.30;42.90;;;;;;10535305;28;20310;-90
2021/11/20 18:00:47;;;;;;;7.53;6.83;;;11.30;43.20;;;;;;10534979;28;20230;-91
2021/11/20 18:06:06;;;;;;;8.83;8.00;;;11.30;43.30;;;;;;10534698;28;20230;-90
2021/11/20 18:11:11;;;;;;;8.70;7.93;;;11.30;42.80;;;;;;10534235;28;20227;-91
2021/11/20 18:16:25;;;;;;;8.97;8.17;;;11.30;43.30;;;;;;10534136;28;20231;-92
2021/11/20 18:21:28;;;;;;;8.27;7.50;;;11.30;43.10;;;;;;10534122;28;20227;-91
2021/11/20 18:26:36;;;;;;;9.30;8.40;;;11.30;43.40;;;;;;10534555;28;20671;-92
2021/11/20 18:31:47;;;;;;;9.17;8.23;;;11.30;43.00;;;;;;10534136;28;20298;-92
2021/11/20 18:36:53;;;;;;;10.30;9.20;;;11.30;42.80;;;;;;10523890;28;20250;-91
2021/11/20 18:41:58;;;;;;;9.17;8.27;;;11.30;43.10;;;;;;10534824;28;20227;-90
2021/11/20 18:47:03;;;;;;;8.73;7.93;;;11.30;43.10;;;;;;10533482;28;20281;-91
2021/11/20 18:52:07;;;;;;;8.20;7.43;;;11.20;43.10;;;;;;10530953;28;20238;-91
2021/11/20 18:57:13;;;;;;;8.00;7.33;;;11.20;43.00;;;;;;10540704;28;20297;-92
2021/11/20 19:02:18;;;;;;;8.53;7.73;;;11.20;43.10;;;;;;10541316;28;20258;-93
2021/11/20 19:07:23;;;;;;;9.13;8.30;;;11.20;43.10;;;;;;10529737;28;20246;-92
2021/11/20 19:12:28;;;;;;;9.23;8.43;;;11.20;43.00;;;;;;10539964;28;20234;-92
2021/11/20 19:17:32;;;;;;;9.93;9.13;;;11.20;42.90;;;;;;10540099;28;20314;-92
2021/11/20 19:22:35;;;;;;;9.37;8.50;;;11.20;43.00;;;;;;10539733;28;20682;-91
2021/11/20 19:27:47;;;;;;;10.20;9.30;;;11.10;42.90;;;;;;10538959;28;20353;-90
2021/11/20 20:04:40;;;;;;;12.37;11.33;;;11.00;42.90;;;;;;10504650;22;20232;-72
2021/11/20 20:09:44;;;;;;;12.33;11.23;;;11.00;43.10;;;;;;10460243;28;20422;-73
2021/11/20 20:14:47;;;;;;;11.20;10.30;;;11.00;43.00;;;;;;10443109;28;20224;-73
2021/11/20 20:19:52;;;;;;;10.70;9.87;;;11.00;43.00;;;;;;10418089;28;20235;-73
2021/11/20 20:24:57;;;;;;;12.50;11.50;;;10.90;42.90;;;;;;10417266;28;20244;-73
2021/11/20 20:30:01;;;;;;;13.17;12.07;;;10.90;42.90;;;;;;10419116;28;20905;-73
2021/11/20 20:35:24;;;;;;;12.93;11.93;;;10.80;43.00;;;;;;10420420;28;20241;-73
2021/11/20 20:40:27;;;;;;;13.57;12.27;;;10.80;43.00;;;;;;10418154;28;20233;-73
2021/11/20 20:45:31;;;;;;;14.80;13.60;;;10.70;43.10;;;;;;10417203;28;20318;-73
2021/11/20 20:50:36;;;;;;;15.53;14.13;;;10.60;43.20;;;;;;10416668;28;20241;-73
2021/11/20 20:55:40;;;;;;;14.63;13.30;;;10.60;43.20;;;;;;10413428;28;20264;-73
2021/11/20 21:00:43;;;;;;;16.87;15.47;;;10.60;43.30;;;;;;10425850;28;20232;-73
2021/11/20 21:05:48;;;;;;;16.00;14.70;;;10.60;43.40;;;;;;10418274;28;20235;-73
2021/11/20 21:10:51;;;;;;;15.63;14.43;;;10.60;43.40;;;;;;10423659;28;20656;-73
2021/11/20 21:15:54;;;;;;;17.13;15.63;;;10.60;43.40;;;;;;10422209;28;20237;-73
2021/11/20 21:26:19;;;;;;;16.13;14.83;;;10.70;43.20;;;;;;10415734;28;20221;-73
2021/11/20 21:31:23;;;;;;;17.43;15.93;;;10.70;43.30;;;;;;10421311;28;20234;-73
2021/11/20 21:36:28;;;;;;;18.13;16.63;;;10.70;43.20;;;;;;10417130;28;21099;-73
2021/11/20 21:41:32;;;;;;;18.40;16.70;;;10.70;43.20;;;;;;10417259;28;20581;-73
2021/11/20 21:46:35;;;;;;;17.80;16.30;;;10.60;43.20;;;;;;10417428;28;20604;-73
2021/11/20 21:51:40;;;;;;;17.57;16.07;;;10.60;43.30;;;;;;10414846;28;20316;-73
2021/11/20 21:56:44;;;;;;;17.37;15.93;;;10.50;43.10;;;;;;10414235;28;20248;-73
2021/11/20 22:01:47;;;;;;;18.37;16.77;;;10.50;43.40;;;;;;10421458;28;20732;-73
2021/11/20 22:07:14;;;;;;;19.17;17.43;;;10.40;43.40;;;;;;10417572;28;20229;-72
2021/11/20 22:12:17;;;;;;;19.17;17.47;;;10.40;43.30;;;;;;10416152;28;21053;-72
2021/11/20 22:17:20;;;;;;;18.67;17.07;;;10.50;43.60;;;;;;10419300;28;20276;-74
2021/11/20 22:22:25;;;;;;;18.60;17.07;;;10.40;43.40;;;;;;10428996;28;20232;-74
2021/11/20 22:27:28;;;;;;;20.77;18.97;;;10.40;43.50;;;;;;10430903;28;20236;-74
2021/11/20 22:32:32;;;;;;;20.47;18.60;;;10.30;43.50;;;;;;10415884;28;20609;-74
2021/11/20 22:37:36;;;;;;;17.97;16.47;;;10.30;43.70;;;;;;10422797;28;20247;-74
2021/11/20 22:42:40;;;;;;;18.13;16.53;;;10.30;43.80;;;;;;10426484;28;20225;-74
2021/11/20 22:47:44;;;;;;;18.53;16.70;;;10.20;43.50;;;;;;10428004;28;20735;-74
2021/11/20 22:53:03;;;;;;;16.50;15.10;;;10.20;43.70;;;;;;10426698;28;20327;-74
2021/11/20 22:58:07;;;;;;;15.90;14.50;;;10.20;43.70;;;;;;10423903;28;20229;-72
2021/11/20 23:03:12;;;;;;;17.20;15.47;;;10.10;43.70;;;;;;10419778;28;20234;-73
2021/11/20 23:08:17;;;;;;;16.80;15.40;;;10.10;43.80;;;;;;10421882;28;20229;-74
2021/11/20 23:13:22;;;;;;;16.07;14.67;;;10.10;43.70;;;;;;10413481;28;20323;-73
2021/11/20 23:18:26;;;;;;;15.10;13.80;;;10.10;43.70;;;;;;10418406;28;20230;-73
2021/11/20 23:23:30;;;;;;;15.27;13.87;;;10.00;43.80;;;;;;10415637;28;20238;-74
2021/11/20 23:28:35;;;;;;;15.73;14.33;;;10.00;43.60;;;;;;10409041;28;20286;-74
2021/11/20 23:33:40;;;;;;;15.33;13.93;;;10.00;43.70;;;;;;10416953;28;20239;-74
2021/11/20 23:38:44;;;;;;;14.80;13.50;;;9.90;44.70;;;;;;10415782;28;20469;-74
2021/11/20 23:43:48;;;;;;;15.27;14.00;;;9.80;44.80;;;;;;10414403;28;20229;-74
2021/11/20 23:48:52;;;;;;;13.43;12.27;;;9.80;44.90;;;;;;10418300;28;20241;-74
2021/11/20 23:53:57;;;;;;;13.47;12.27;;;9.70;45.10;;;;;;10422906;28;20237;-73
2021/11/20 23:59:00;;;;;;;14.77;13.47;;;9.70;45.20;;;;;;10416440;28;20233;-73
